Bataysk — UBXE3 — position and weather

sailwx.info

Track history (hours):
 
Tides and Currents Weather Stations Pressure Air Temp Water Temp Dewpoint Dewpoint Depression Visibility Wind Speed Wind Dir Waves Ship Positions

Bataysk

Last reported at 2017-Apr-29 09:18 UTC. Time now 2017-Apr-30 01:33 UTC.
Position N 44°59' E 036°30'.

Length 130 m; draft 3.7 m.

Type: Cargo ship. MMSI: 273347320.

Date/timePositionNaut miles runAvg speedWind from/ knotsBaromVisibWave heightAir tempDewpointWater temp
2017-Apr-29 09:18N 44°59' E 036°30'2 7.3
2017-Apr-29 09:00N 45°01' E 036°30'4 7.5
2017-Apr-29 08:30N 45°05' E 036°30'4 7.2
2017-Apr-29 08:00N 45°08' E 036°29'4 7.2
2017-Apr-29 07:30N 45°12' E 036°28'4 7.2
2017-Apr-29 07:00N 45°16' E 036°28'3 5.4
2017-Apr-29 06:30N 45°18' E 036°29'4 7.7
2017-Apr-29 06:00N 45°20' E 036°34'4 7.7
2017-Apr-29 05:30N 45°21' E 036°39'4 7.3
2017-Apr-29 05:00N 45°25' E 036°41'3 6.3
2017-Apr-29 04:30N 45°28' E 036°40'1 0.7
2017-Apr-29 03:41N 45°28' E 036°39'0 0.1
2017-Apr-29 03:26N 45°28' E 036°39'0 0.0
2017-Apr-29 02:59N 45°28' E 036°39'0 0.0
2017-Apr-29 02:29N 45°28' E 036°39'0 0.0
2017-Apr-29 01:56N 45°28' E 036°39'0 0.0
2017-Apr-29 01:29N 45°28' E 036°39'0 0.0
2017-Apr-29 00:59N 45°28' E 036°39'0 0.0
2017-Apr-29 00:26N 45°28' E 036°39'0 0.0
2017-Apr-28 23:59N 45°28' E 036°39'0 0.0
2017-Apr-28 23:29N 45°28' E 036°39'0 0.0
2017-Apr-28 22:44N 45°28' E 036°39'0 0.0
2017-Apr-28 22:29N 45°28' E 036°39'0 0.0
2017-Apr-28 21:59N 45°28' E 036°39'0 0.0
2017-Apr-28 21:29N 45°28' E 036°39'0 0.0
2017-Apr-28 20:56N 45°28' E 036°39'0 0.0
2017-Apr-28 20:26N 45°28' E 036°39'0 0.0
2017-Apr-28 19:59N 45°28' E 036°39'0 0.0
2017-Apr-28 19:29N 45°28' E 036°39'0 0.0
2017-Apr-28 18:59N 45°28' E 036°39'0 0.0
2017-Apr-28 18:29N 45°28' E 036°39'0 0.0
2017-Apr-28 17:59N 45°28' E 036°39'0 0.0
2017-Apr-28 17:26N 45°28' E 036°39'0 0.0
2017-Apr-28 16:59N 45°28' E 036°39'0 0.0
2017-Apr-28 16:29N 45°28' E 036°39'0 0.0
2017-Apr-28 15:59N 45°28' E 036°39'0 0.0
2017-Apr-28 15:29N 45°28' E 036°39'0 0.0
2017-Apr-28 14:59N 45°28' E 036°39'0 0.0
2017-Apr-28 13:59N 45°28' E 036°39'0 0.0
2017-Apr-28 13:23N 45°28' E 036°39'0 0.0
2017-Apr-28 12:59N 45°28' E 036°39'0 0.0
2017-Apr-28 12:29N 45°28' E 036°39'0 0.0
2017-Apr-28 11:50N 45°28' E 036°39'0 0.0
2017-Apr-28 11:26N 45°28' E 036°39'0 0.0
2017-Apr-28 10:59N 45°28' E 036°39'0 0.0
2017-Apr-28 10:29N 45°28' E 036°39'0 0.0
2017-Apr-28 09:59N 45°28' E 036°39'0 0.0
2017-Apr-28 09:29N 45°28' E 036°39'0 0.0
2017-Apr-28 08:59N 45°28' E 036°39'0 0.0
2017-Apr-28 08:29N 45°28' E 036°39'0 0.1
2017-Apr-28 07:59N 45°28' E 036°39'0 0.0
2017-Apr-28 07:29N 45°28' E 036°39'0 0.0
2017-Apr-28 06:56N 45°28' E 036°39'0 0.0
2017-Apr-28 06:29N 45°28' E 036°39'0 0.0
2017-Apr-28 05:59N 45°28' E 036°39'0 0.0
2017-Apr-28 05:29N 45°28' E 036°39'0 0.0
2017-Apr-28 04:59N 45°28' E 036°39'0 0.0
2017-Apr-28 04:29N 45°28' E 036°39'0 0.0
2017-Apr-28 03:59N 45°28' E 036°39'0 0.0
2017-Apr-28 03:29N 45°28' E 036°39'0 0.0
2017-Apr-28 02:59N 45°28' E 036°39'0 0.0
2017-Apr-28 02:29N 45°28' E 036°39'0 0.0
2017-Apr-28 01:59N 45°28' E 036°39'0 0.0
2017-Apr-28 01:26N 45°28' E 036°39'0 0.0
2017-Apr-28 00:59N 45°28' E 036°39'0 0.0
2017-Apr-28 00:29N 45°28' E 036°39'0 0.0
2017-Apr-27 23:59N 45°28' E 036°39'0 0.0
2017-Apr-27 23:29N 45°28' E 036°39'0 0.0
2017-Apr-27 22:59N 45°28' E 036°39'0 0.0
2017-Apr-27 22:26N 45°28' E 036°39'0 0.0
2017-Apr-27 21:59N 45°28' E 036°39'0 0.0
2017-Apr-27 21:29N 45°28' E 036°39'0 0.0
2017-Apr-27 20:59N 45°28' E 036°39'0 0.1
2017-Apr-27 20:29N 45°28' E 036°39'0 0.1
2017-Apr-27 19:56N 45°28' E 036°39'0 0.0
2017-Apr-27 19:29N 45°28' E 036°39'0 0.0
2017-Apr-27 18:59N 45°28' E 036°39'0 0.0
2017-Apr-27 18:29N 45°28' E 036°39'0 0.0
2017-Apr-27 15:47N 45°28' E 036°39'0 0.0
2017-Apr-27 15:29N 45°28' E 036°39'0 0.0
2017-Apr-27 14:59N 45°28' E 036°39'0 0.0
2017-Apr-27 13:59N 45°28' E 036°39'0 0.0
2017-Apr-27 13:29N 45°28' E 036°39'0 0.0
2017-Apr-27 12:59N 45°28' E 036°39'0 0.0
2017-Apr-27 12:29N 45°28' E 036°39'0 0.0
2017-Apr-27 11:56N 45°28' E 036°39'0 0.0
2017-Apr-27 11:29N 45°28' E 036°39'0 0.0
2017-Apr-27 10:56N 45°28' E 036°39'0 0.0
2017-Apr-27 10:29N 45°28' E 036°39'0 0.0
2017-Apr-27 09:53N 45°28' E 036°39'0 0.0
2017-Apr-27 09:20N 45°28' E 036°39'0 0.0
2017-Apr-27 08:59N 45°28' E 036°39'0 0.0
2017-Apr-27 08:29N 45°28' E 036°39'0 0.0
2017-Apr-27 07:59N 45°28' E 036°39'0 0.0
2017-Apr-27 07:29N 45°28' E 036°39'0 0.0
2017-Apr-27 06:59N 45°28' E 036°39'0 0.0
2017-Apr-27 06:29N 45°28' E 036°39'0 0.0
2017-Apr-27 05:59N 45°28' E 036°39'0 0.0
2017-Apr-27 05:26N 45°28' E 036°39'0 0.0
2017-Apr-27 04:56N 45°28' E 036°39'0 0.0
2017-Apr-27 04:26N 45°28' E 036°39'0 0.0
2017-Apr-27 03:59N 45°28' E 036°39'0 0.0
2017-Apr-27 03:29N 45°28' E 036°39'0 0.0
2017-Apr-27 02:59N 45°28' E 036°39'0 0.0
2017-Apr-27 02:30N 45°28' E 036°39'0 0.2
2017-Apr-27 02:01N 45°28' E 036°39'2 4.0
2017-Apr-27 01:30N 45°28' E 036°42'2 3.2
2017-Apr-27 01:00N 45°29' E 036°44'2 4.9
2017-Apr-27 00:30N 45°32' E 036°45'5 7.1
2017-Apr-26 23:50N 45°36' E 036°47'  
Track history (hours):
 
Tides and Currents Weather Stations Pressure Air Temp Water Temp Dewpoint Dewpoint Depression Visibility Wind Speed Wind Dir Waves Ship Positions

Bataysk

Last reported at 2017-Apr-29 09:18 UTC. Time now 2017-Apr-30 01:33 UTC.
Position N 44°59' E 036°30'.

Length 130 m; draft 3.7 m.

Type: Cargo ship. MMSI: 273347320.

Date/timePositionNaut miles runAvg speedWind from/ knotsBaromVisibWave heightAir tempDewpointWater temp
2017-Apr-29 09:18N 44°59' E 036°30'2 7.3
2017-Apr-29 09:00N 45°01' E 036°30'4 7.5
2017-Apr-29 08:30N 45°05' E 036°30'4 7.2
2017-Apr-29 08:00N 45°08' E 036°29'4 7.2
2017-Apr-29 07:30N 45°12' E 036°28'4 7.2
2017-Apr-29 07:00N 45°16' E 036°28'3 5.4
2017-Apr-29 06:30N 45°18' E 036°29'4 7.7
2017-Apr-29 06:00N 45°20' E 036°34'4 7.7
2017-Apr-29 05:30N 45°21' E 036°39'4 7.3
2017-Apr-29 05:00N 45°25' E 036°41'3 6.3
2017-Apr-29 04:30N 45°28' E 036°40'1 0.7
2017-Apr-29 03:41N 45°28' E 036°39'0 0.1
2017-Apr-29 03:26N 45°28' E 036°39'0 0.0
2017-Apr-29 02:59N 45°28' E 036°39'0 0.0
2017-Apr-29 02:29N 45°28' E 036°39'0 0.0
2017-Apr-29 01:56N 45°28' E 036°39'0 0.0
2017-Apr-29 01:29N 45°28' E 036°39'0 0.0
2017-Apr-29 00:59N 45°28' E 036°39'0 0.0
2017-Apr-29 00:26N 45°28' E 036°39'0 0.0
2017-Apr-28 23:59N 45°28' E 036°39'0 0.0
2017-Apr-28 23:29N 45°28' E 036°39'0 0.0
2017-Apr-28 22:44N 45°28' E 036°39'0 0.0
2017-Apr-28 22:29N 45°28' E 036°39'0 0.0
2017-Apr-28 21:59N 45°28' E 036°39'0 0.0
2017-Apr-28 21:29N 45°28' E 036°39'0 0.0
2017-Apr-28 20:56N 45°28' E 036°39'0 0.0
2017-Apr-28 20:26N 45°28' E 036°39'0 0.0
2017-Apr-28 19:59N 45°28' E 036°39'0 0.0
2017-Apr-28 19:29N 45°28' E 036°39'0 0.0
2017-Apr-28 18:59N 45°28' E 036°39'0 0.0
2017-Apr-28 18:29N 45°28' E 036°39'0 0.0
2017-Apr-28 17:59N 45°28' E 036°39'0 0.0
2017-Apr-28 17:26N 45°28' E 036°39'0 0.0
2017-Apr-28 16:59N 45°28' E 036°39'0 0.0
2017-Apr-28 16:29N 45°28' E 036°39'0 0.0
2017-Apr-28 15:59N 45°28' E 036°39'0 0.0
2017-Apr-28 15:29N 45°28' E 036°39'0 0.0
2017-Apr-28 14:59N 45°28' E 036°39'0 0.0
2017-Apr-28 13:59N 45°28' E 036°39'0 0.0
2017-Apr-28 13:23N 45°28' E 036°39'0 0.0
2017-Apr-28 12:59N 45°28' E 036°39'0 0.0
2017-Apr-28 12:29N 45°28' E 036°39'0 0.0
2017-Apr-28 11:50N 45°28' E 036°39'0 0.0
2017-Apr-28 11:26N 45°28' E 036°39'0 0.0
2017-Apr-28 10:59N 45°28' E 036°39'0 0.0
2017-Apr-28 10:29N 45°28' E 036°39'0 0.0
2017-Apr-28 09:59N 45°28' E 036°39'0 0.0
2017-Apr-28 09:29N 45°28' E 036°39'0 0.0
2017-Apr-28 08:59N 45°28' E 036°39'0 0.0
2017-Apr-28 08:29N 45°28' E 036°39'0 0.1
2017-Apr-28 07:59N 45°28' E 036°39'0 0.0
2017-Apr-28 07:29N 45°28' E 036°39'0 0.0
2017-Apr-28 06:56N 45°28' E 036°39'0 0.0
2017-Apr-28 06:29N 45°28' E 036°39'0 0.0
2017-Apr-28 05:59N 45°28' E 036°39'0 0.0
2017-Apr-28 05:29N 45°28' E 036°39'0 0.0
2017-Apr-28 04:59N 45°28' E 036°39'0 0.0
2017-Apr-28 04:29N 45°28' E 036°39'0 0.0
2017-Apr-28 03:59N 45°28' E 036°39'0 0.0
2017-Apr-28 03:29N 45°28' E 036°39'0 0.0
2017-Apr-28 02:59N 45°28' E 036°39'0 0.0
2017-Apr-28 02:29N 45°28' E 036°39'0 0.0
2017-Apr-28 01:59N 45°28' E 036°39'0 0.0
2017-Apr-28 01:26N 45°28' E 036°39'0 0.0
2017-Apr-28 00:59N 45°28' E 036°39'0 0.0
2017-Apr-28 00:29N 45°28' E 036°39'0 0.0
2017-Apr-27 23:59N 45°28' E 036°39'0 0.0
2017-Apr-27 23:29N 45°28' E 036°39'0 0.0
2017-Apr-27 22:59N 45°28' E 036°39'0 0.0
2017-Apr-27 22:26N 45°28' E 036°39'0 0.0
2017-Apr-27 21:59N 45°28' E 036°39'0 0.0
2017-Apr-27 21:29N 45°28' E 036°39'0 0.0
2017-Apr-27 20:59N 45°28' E 036°39'0 0.1
2017-Apr-27 20:29N 45°28' E 036°39'0 0.1
2017-Apr-27 19:56N 45°28' E 036°39'0 0.0
2017-Apr-27 19:29N 45°28' E 036°39'0 0.0
2017-Apr-27 18:59N 45°28' E 036°39'0 0.0
2017-Apr-27 18:29N 45°28' E 036°39'0 0.0
2017-Apr-27 15:47N 45°28' E 036°39'0 0.0
2017-Apr-27 15:29N 45°28' E 036°39'0 0.0
2017-Apr-27 14:59N 45°28' E 036°39'0 0.0
2017-Apr-27 13:59N 45°28' E 036°39'0 0.0
2017-Apr-27 13:29N 45°28' E 036°39'0 0.0
2017-Apr-27 12:59N 45°28' E 036°39'0 0.0
2017-Apr-27 12:29N 45°28' E 036°39'0 0.0
2017-Apr-27 11:56N 45°28' E 036°39'0 0.0
2017-Apr-27 11:29N 45°28' E 036°39'0 0.0
2017-Apr-27 10:56N 45°28' E 036°39'0 0.0
2017-Apr-27 10:29N 45°28' E 036°39'0 0.0
2017-Apr-27 09:53N 45°28' E 036°39'0 0.0
2017-Apr-27 09:20N 45°28' E 036°39'0 0.0
2017-Apr-27 08:59N 45°28' E 036°39'0 0.0
2017-Apr-27 08:29N 45°28' E 036°39'0 0.0
2017-Apr-27 07:59N 45°28' E 036°39'0 0.0
2017-Apr-27 07:29N 45°28' E 036°39'0 0.0
2017-Apr-27 06:59N 45°28' E 036°39'0 0.0
2017-Apr-27 06:29N 45°28' E 036°39'0 0.0
2017-Apr-27 05:59N 45°28' E 036°39'0 0.0
2017-Apr-27 05:26N 45°28' E 036°39'0 0.0
2017-Apr-27 04:56N 45°28' E 036°39'0 0.0
2017-Apr-27 04:26N 45°28' E 036°39'0 0.0
2017-Apr-27 03:59N 45°28' E 036°39'0 0.0
2017-Apr-27 03:29N 45°28' E 036°39'0 0.0
2017-Apr-27 02:59N 45°28' E 036°39'0 0.0
2017-Apr-27 02:30N 45°28' E 036°39'0 0.2
2017-Apr-27 02:01N 45°28' E 036°39'2 4.0
2017-Apr-27 01:30N 45°28' E 036°42'2 3.2
2017-Apr-27 01:00N 45°29' E 036°44'2 4.9
2017-Apr-27 00:30N 45°32' E 036°45'5 7.1
2017-Apr-26 23:50N 45°36' E 036°47'  

Dump ship's entire track history